Hovedside
METAR-TAF:

METAR-TAF

Lufthavner :

Bahrain, Bahrain

breddegrad: 26-16N, lengdegrad: 050-39E, høyde over havet: 2 m

Gjeldene værobservasjon

Denne rapporten ble laget for 20 minutter siden, klokken 17:30 UTC
Vind 10 kt fra Nord-nordvest
Temperatur 21°C
Luftfuktighet 69%
Trykk 1020 hPa
Sikt 10 km eller mer
ingen skyer under 1500 m og ingen bygeskyer

METAR: OBBI 121730Z 33010KT CAVOK 21/15 Q1020 NOSIG

Tid: 20:50 (17:50 UTC)

Varsel

Denne rapporten ble laget for 50 minutter siden, klokken 17:00 UTC
Varsel gyldig fra 12. klokken 18 UTC til 14. klokken 00 UTC
Vind 10 kt fra Nord-nordvest
Sikt 10 km eller mer
ingen skyer under 1500 m og ingen bygeskyer

TAF: OBBI 121700Z 1218/1400 34010KT CAVOK

Værobservasjoner og værvarsel for over 4000 flyplasser (METAR- og TAF-rapporter).

Tilgjengelige stasjoner er representert av de røde og gule prikkene på kartet.

Hold musepekeren over prikken for å se navnet på stasjonen.

Klikk så for å se værobservasjoner og -varsler.

For å forandre kartet kan du klikke på den grønne knappen med svart kryss for å zoome inn, på den grønne knappen med strek for å zoome ut, eller på de grønne pilene for å se tilstøtende kart.


METAR-TAF: